Ride Results

The Don Challenge 3 Sat (20-11-2010)
Ride distance: 80.0 km

Outcomes - The Don Challenge 3 Sat (20-11-2010)
Division No. of Entries Retired / DNE Completed Withdrawn Ineligible V/O Percentage Completed
HW 9 - 6 1 - 2 66.67%
MW 12 - 12 - - - 100.00%
LW 7 - 6 - - 1 85.71%
JN 5 - 5 - - - 100.00%
Totals 33 - 29 1 - 3 87.88%
Results - The Don Challenge 3 Sat (20-11-2010)
No. Rider Horse Place Time Leg Speeds Total
Km/Hr
H/R bpm
Heavyweight
128 Niels Lochtenberg Matta Mia Dayman 1 (BC) 5:59:00 13.3, 15.9, 10.8 13.37 42, 47, 43, 49 (Avg:46)
124 Scott Parkinson Conderosa Millenium Silver 2 6:23:00 14.6, 13.7, 9.3 12.53 46, 55, 52, 57 (Avg:54)
154 Nick Riley Chazar Bandana 3 6:28:00 11.7, 13.4, 11.8 12.37 49, 46, 43, 49 (Avg:46)
134 Angela Waldock Gundabah Fair Lady 3 6:28:00 11.7, 13.4, 11.8 12.37 44, 48, 53, 55 (Avg:52)
165 Matthew Gadsby Ra Silver Dancer 5 7:50:00 9.4, 11.7, 9.5 10.21 28, 47, 47, 46 (Avg:46)
122 Ven Grasso Isabelle te 6 7:51:00 9.4, 12.2, 8.9 10.19 31, 36, 37, 38 (Avg:37)
125 Dick Collyer Lion Hunter Lame L3 0:00:00 11.9, 13.7, 11.2 - 32, 49, 50, 53 (Avg:50)
130 Maurice Gray Sandine Diesel Lame L3 0:00:00 10.1, 13.0, 6.5 - 38, 43, 45, 47 (Avg:45)
137 Paul Lengronne Tierview Feather Danczer Withdrawn L2 0:00:00 - - 34, 45, 52 (Avg:48)
Middleweight
133 Johann Willemse Cheraz Silver Pocket 1 (BC) 4:14:00 16.8, 22.5, 17.9 18.90 39, 46, 48, 44 (Avg:46)
161 Dean Chamberlain Annordean Sir Zac 2 4:44:00 15.9, 20.9, 14.1 16.90 39, 47, 47, 49 (Avg:47)
140 Caroline Fitzgerald Lanamere Nightmusic 3 5:59:00 13.3, 15.9, 10.8 13.37 35, 44, 47, 44 (Avg:45)
167 Billie Barron Cameo Mazquerade 4 6:12:00 13.3, 14.6, 10.5 12.90 37, 45, 48, 48 (Avg:47)
144 Fiona Fenech Indiana Allias 5 6:28:00 11.7, 13.4, 11.8 12.37 40, 42, 42, 45 (Avg:43)
145 Ute Jordan Charaway Amici 6 7:22:00 10.8, 12.3, 9.2 10.86 40, 44, 47, 46 (Avg:45)
159 Olga Bartlett Cingala Royalle 7 7:28:00 11.3, 11.6, 8.8 10.71 38, 45, 43, 45 (Avg:44)
156 Damien Keys Elfar Karnella 8 7:37:00 10.9, 12.0, 8.3 10.50 36, 46, 42, 46 (Avg:44)
155 Rachael Keys Elfar Salute 8 7:37:00 10.9, 12.0, 8.3 10.50 38, 44, 48, 46 (Avg:46)
163 Marion Lengronne Kalkadoon Alfresco 10 7:50:00 9.4, 11.7, 9.5 10.21 35, 41, 42, 48 (Avg:43)
120 Bridget Nottle Donnatoldus 11 7:51:00 9.4, 12.2, 8.9 10.19 40, 47, 52, 50 (Avg:49)
160 Donna Brooker Hirstglen Louisianna 12 8:05:00 10.2, 10.8, 8.3 9.90 39, 54, 51, 50 (Avg:51)
Lightweight
162 Annette Chamberlain Annordean Lady Lilly 1 (BC) 5:30:00 15.9, 18.1, 10.1 14.55 39, 40, 49, 44 (Avg:44)
126 Karen Winkel Xanadu Barabbous 2 6:24:00 11.8, 15.6, 10.2 12.50 39, 43, 46, 48 (Avg:45)
146 Sue Jones Hinterland Hellfire 3 7:22:00 10.8, 12.3, 9.2 10.86 35, 40, 45, 48 (Avg:44)
158 Allix Jones Clovelly Park Samson 4 8:12:00 9.3, 11.6, 8.2 9.76 39, 46, 50, 50 (Avg:48)
153 Wendy Jones Nioka Park Jag 5 8:13:00 9.3, 11.6, 8.2 9.74 38, 41, 50, 48 (Avg:46)
131 Jess Capek The Wrangler 6 8:27:00 11.9, 9.6, 7.0 9.47 48, 51, 50, 54 (Avg:51)
123 Natashja Burton Glenewan Spring Heart Rate L1 0:00:00 11.8 - 45, 60 (Avg:60)
Junior
166 Hannah Terry Dardanga Fingal 1 7:24:00 11.0, 11.6, 9.5 10.81 40, 49, 45, 50 (Avg:48)
164 Tia Cunnington Wattles Marcelle 2 7:46:00 10.9, 11.2, 8.4 10.30 42, 52, 49, 49 (Avg:50)
121 Alexandra Toft Ovation Te 3 (BC) 7:51:00 9.4, 12.2, 8.9 10.19 34, 44, 40, 40 (Avg:41)
175 Samantha Brooker Hirstglen Zanadu 4 8:05:00 10.2, 10.8, 8.3 9.90 41, 43, 43, 44 (Avg:43)
178 Sharn Brooker Hirstglen Zaire 4 8:05:00 9.4, 11.9, 8.3 9.90 44, 46, 47, 51 (Avg:48)